This is the latest recevied weather packets stored in our database for station/object BM3JAS-9. If no packets are shown the sender has not sent any weather packets the latest 1 day(s).
| Time | Temp. | Humidity | Pressure | Rain* | Wind** | Luminosity | Snow |
|---|---|---|---|---|---|---|---|
| 1836274565 | 33.89° C | 68% | 0 hPa | - | 0 m/s | - | - |
| 1836274415 | 34.44° C | 66% | 0 hPa | - | 0 m/s | - | - |
| 1836273965 | 33.33° C | 69% | 0 hPa | - | 0 m/s | - | - |
| 1778030685 | 24.44° C | 82% | 0 hPa | - | 0 m/s | - | - |
| 1778030085 | 23.89° C | 82% | 0 hPa | - | 0 m/s | - | - |
| 1778029485 | 23.89° C | 82% | 0 hPa | - | 0 m/s | - | - |
| 1778028285 | 23.89° C | 83% | 0 hPa | - | 0 m/s | - | - |
| 1778027685 | 23.89° C | 83% | 0 hPa | - | 0 m/s | - | - |
| 1778027085 | 23.89° C | 84% | 0 hPa | - | 0 m/s | - | - |
| 1778026485 | 23.89° C | 84% | 0 hPa | - | 0 m/s | - | - |
| 1778025885 | 23.89° C | 84% | 0 hPa | - | 0 m/s | - | - |
| 1778025285 | 23.89° C | 84% | 0 hPa | - | 0 m/s | - | - |
| 1778024685 | 23.33° C | 84% | 0 hPa | - | 0 m/s | - | - |
| 1778024085 | 23.33° C | 84% | 0 hPa | - | 0 m/s | - | - |
| 1778023485 | 23.33° C | 85% | 0 hPa | - | 0 m/s | - | - |
| 1778022885 | 22.78° C | 85% | 0 hPa | - | 0 m/s | - | - |
| 1778021686 | 22.78° C | 85% | 0 hPa | - | 0 m/s | - | - |
| 1778021086 | 22.22° C | 86% | 0 hPa | - | 0 m/s | - | - |
| 1778020485 | 22.22° C | 86% | 0 hPa | - | 0 m/s | - | - |
| 1778019886 | 21.67° C | 86% | 0 hPa | - | 0 m/s | - | - |
| 1778019286 | 21.67° C | 86% | 0 hPa | - | 0 m/s | - | - |
| 1778018686 | 21.67° C | 85% | 0 hPa | - | 0 m/s | - | - |
| 1778018086 | 21.67° C | 85% | 0 hPa | - | 0 m/s | - | - |
| 1778017486 | 21.67° C | 86% | 0 hPa | - | 0 m/s | - | - |
| 1778016886 | 21.67° C | 86% | 0 hPa | - | 0 m/s | - | - |
* Rain since midnight (hover to see other rain measurements)
** Current wind speed in m/s (hover to see current wind gust speed)